Time;durP1;ratioP1;P1;durP2;ratioP2;P2;SDS_P1;SDS_P2;PMS_P1;PMS_P2;Temp;Humidity;BMP_temperature;BMP_pressure;BME280_temperature;BME280_humidity;BME280_pressure;Samples;Min_cycle;Max_cycle;Signal;HPM_P1;HPM_P2
2023/05/26 00:00:34;;;;;;;7.90;3.72;;;;;;;12.90;100.00;99399.38;4994183;28;20029;-47
2023/05/26 00:03:02;;;;;;;7.07;3.53;;;;;;;12.87;100.00;99404.38;4993250;28;20033;-47
2023/05/26 00:05:27;;;;;;;7.85;3.75;;;;;;;12.88;100.00;99406.88;4999699;28;20108;-47
2023/05/26 00:07:55;;;;;;;6.63;3.90;;;;;;;12.87;100.00;99399.78;4995551;28;20112;-48
2023/05/26 00:10:20;;;;;;;8.90;4.00;;;;;;;12.88;100.00;99408.75;4990014;28;20026;-46
2023/05/26 00:12:46;;;;;;;8.70;3.75;;;;;;;12.88;100.00;99412.31;4997729;28;20026;-48
2023/05/26 00:15:11;;;;;;;8.60;3.90;;;;;;;12.86;100.00;99403.56;4986235;28;20026;-56
2023/05/26 00:17:37;;;;;;;6.25;3.50;;;;;;;12.96;100.00;99410.47;4992934;28;20117;-57
2023/05/26 00:20:04;;;;;;;9.90;3.78;;;;;;;12.97;100.00;99412.13;4994539;28;20069;-56
2023/05/26 00:22:29;;;;;;;6.20;3.40;;;;;;;13.01;100.00;99416.94;5000492;28;20021;-56
2023/05/26 00:24:55;;;;;;;7.20;3.97;;;;;;;13.03;100.00;99414.03;4990515;28;20030;-57
2023/05/26 00:27:20;;;;;;;6.28;3.45;;;;;;;13.09;100.00;99407.78;4992108;28;20060;-56
2023/05/26 00:29:47;;;;;;;7.18;3.40;;;;;;;13.15;100.00;99415.09;5003273;28;20021;-56
2023/05/26 00:32:12;;;;;;;7.40;3.75;;;;;;;13.12;100.00;99412.78;4999629;28;20034;-56
2023/05/26 00:34:38;;;;;;;6.88;3.15;;;;;;;13.14;100.00;99417.00;4996797;28;20040;-56
2023/05/26 00:37:03;;;;;;;7.78;3.60;;;;;;;13.05;100.00;99398.38;4997056;28;20030;-56
2023/05/26 00:39:32;;;;;;;7.82;3.67;;;;;;;13.11;100.00;99417.41;5012714;28;20029;-56
2023/05/26 00:41:57;;;;;;;11.73;3.50;;;;;;;13.10;100.00;99414.91;4996773;28;20122;-57
2023/05/26 00:44:23;;;;;;;10.82;3.97;;;;;;;13.02;100.00;99407.78;5013852;28;20105;-56
2023/05/26 00:46:48;;;;;;;10.13;3.50;;;;;;;12.94;100.00;99407.94;5000069;28;20116;-56
2023/05/26 00:49:14;;;;;;;8.63;3.45;;;;;;;12.96;100.00;99407.75;4998366;28;20379;-56
2023/05/26 00:51:43;;;;;;;5.95;3.63;;;;;;;12.93;100.00;99409.00;4996967;28;20363;-56
2023/05/26 00:54:09;;;;;;;11.73;4.07;;;;;;;13.04;100.00;99411.09;4993376;28;20019;-56
2023/05/26 00:56:35;;;;;;;12.90;3.80;;;;;;;13.13;100.00;99409.06;4996518;28;20029;-56
2023/05/26 00:59:03;;;;;;;6.93;3.92;;;;;;;13.19;100.00;99415.53;4988654;28;20113;-57
2023/05/26 01:01:29;;;;;;;6.18;3.47;;;;;;;13.14;100.00;99402.56;4994690;28;20351;-57
2023/05/26 01:03:55;;;;;;;9.48;3.80;;;;;;;13.09;100.00;99402.34;4995815;28;20060;-56
2023/05/26 01:06:22;;;;;;;9.15;4.22;;;;;;;13.07;100.00;99407.13;5005260;28;20050;-56
2023/05/26 01:08:47;;;;;;;7.40;3.67;;;;;;;13.08;100.00;99404.22;4979752;28;20029;-56
2023/05/26 01:11:17;;;;;;;11.57;4.30;;;;;;;13.06;100.00;99406.31;4993003;28;20061;-56
2023/05/26 01:13:52;;;;;;;6.07;3.20;;;;;;;13.08;100.00;99400.69;4990793;28;20022;-56
2023/05/26 01:16:22;;;;;;;7.50;3.70;;;;;;;13.10;100.00;99391.28;4990698;28;20080;-56
2023/05/26 01:19:34;;;;;;;7.45;3.70;;;;;;;13.05;100.00;99396.50;4997863;28;20026;-56
2023/05/26 01:22:36;;;;;;;7.18;3.53;;;;;;;12.98;100.00;99394.81;4991963;28;20026;-56
2023/05/26 01:25:30;;;;;;;13.48;4.53;;;;;;;12.91;100.00;99394.78;4996763;28;20028;-56
2023/05/26 01:28:12;;;;;;;8.50;3.85;;;;;;;12.80;100.00;99400.78;4992825;28;20030;-56
2023/05/26 01:30:38;;;;;;;9.23;4.30;;;;;;;12.76;100.00;99402.22;4990419;28;20022;-56
2023/05/26 01:33:03;;;;;;;7.18;3.88;;;;;;;12.70;100.00;99399.28;4993798;28;20037;-56
2023/05/26 01:35:29;;;;;;;8.68;4.07;;;;;;;12.60;100.00;99404.28;4997574;28;20113;-56
2023/05/26 01:37:56;;;;;;;11.85;4.00;;;;;;;12.55;100.00;99408.59;4989314;28;20029;-56
2023/05/26 01:40:22;;;;;;;9.30;4.03;;;;;;;12.45;100.00;99409.84;4994189;28;20075;-56
2023/05/26 01:43:11;;;;;;;8.68;4.40;;;;;;;12.41;100.00;99400.41;5003720;28;20464;-56
2023/05/26 01:45:58;;;;;;;8.85;4.28;;;;;;;12.33;100.00;99399.72;4994083;28;20079;-56
2023/05/26 01:48:25;;;;;;;9.50;4.40;;;;;;;12.28;100.00;99405.75;4996027;28;20038;-56
2023/05/26 01:50:55;;;;;;;9.35;4.38;;;;;;;12.23;100.00;99408.22;4987361;28;20026;-56
2023/05/26 01:53:24;;;;;;;11.63;5.03;;;;;;;12.12;100.00;99414.22;4995203;28;20335;-56
2023/05/26 01:55:54;;;;;;;7.05;4.05;;;;;;;12.03;100.00;99408.94;4995331;28;20068;-56
2023/05/26 01:58:21;;;;;;;10.60;4.35;;;;;;;11.98;100.00;99421.44;5003798;28;20116;-56
2023/05/26 02:00:47;;;;;;;10.48;4.47;;;;;;;11.97;100.00;99419.72;4993126;28;20057;-56
2023/05/26 02:03:14;;;;;;;13.80;4.22;;;;;;;11.84;100.00;99415.00;4992836;28;20429;-56
2023/05/26 02:05:40;;;;;;;11.85;4.10;;;;;;;11.83;100.00;99418.75;4993134;28;20030;-56
2023/05/26 02:08:05;;;;;;;13.52;5.65;;;;;;;11.72;100.00;99412.00;5003208;28;20025;-56
2023/05/26 02:10:31;;;;;;;11.30;5.40;;;;;;;11.67;100.00;99419.06;4996764;28;20033;-56
2023/05/26 02:12:57;;;;;;;9.38;4.35;;;;;;;11.53;100.00;99424.34;4991553;28;20026;-56
2023/05/26 02:15:22;;;;;;;10.77;4.97;;;;;;;11.54;100.00;99417.91;4985864;28;20029;-56
2023/05/26 02:17:48;;;;;;;7.18;4.32;;;;;;;11.54;100.00;99417.91;5004050;28;20026;-56
2023/05/26 02:20:15;;;;;;;9.35;4.55;;;;;;;11.49;100.00;99411.38;5009566;28;20029;-56
2023/05/26 02:22:40;;;;;;;14.55;4.95;;;;;;;11.52;100.00;99422.66;5000711;28;20019;-56
2023/05/26 02:25:06;;;;;;;10.98;4.50;;;;;;;11.41;100.00;99420.47;4992428;28;20026;-56
2023/05/26 02:27:32;;;;;;;8.13;4.10;;;;;;;11.43;100.00;99418.41;4994412;28;20030;-56
2023/05/26 02:29:57;;;;;;;10.82;4.30;;;;;;;11.49;100.00;99417.63;4992997;28;20505;-56
2023/05/26 02:32:23;;;;;;;8.50;4.57;;;;;;;11.52;100.00;99421.81;5001372;28;20121;-56
2023/05/26 02:34:48;;;;;;;8.50;4.05;;;;;;;11.67;100.00;99419.88;5006171;28;20029;-56
2023/05/26 02:37:17;;;;;;;7.38;4.68;;;;;;;11.77;100.00;99422.28;4994143;28;20482;-56
2023/05/26 02:39:42;;;;;;;7.50;4.40;;;;;;;11.88;100.00;99424.47;4994832;28;20510;-55
2023/05/26 02:42:08;;;;;;;13.70;5.55;;;;;;;11.97;100.00;99426.03;4995392;28;20028;-55
2023/05/26 02:44:33;;;;;;;11.98;5.18;;;;;;;11.96;100.00;99420.78;4992057;28;20037;-56
2023/05/26 02:46:58;;;;;;;7.97;4.53;;;;;;;11.91;100.00;99415.94;4994428;28;20022;-56
2023/05/26 02:49:24;;;;;;;8.68;3.88;;;;;;;11.91;100.00;99423.25;4994362;28;20452;-56
2023/05/26 02:51:49;;;;;;;9.85;4.32;;;;;;;11.95;100.00;99421.81;4993888;28;20026;-56
2023/05/26 02:54:14;;;;;;;10.23;4.55;;;;;;;11.89;100.00;99412.56;5010295;28;20030;-56
2023/05/26 02:56:40;;;;;;;9.52;4.35;;;;;;;11.81;100.00;99415.41;4993901;28;20025;-56
2023/05/26 02:59:06;;;;;;;8.85;4.57;;;;;;;11.87;100.00;99416.53;4993784;28;20018;-55
2023/05/26 03:01:31;;;;;;;16.23;5.00;;;;;;;11.80;100.00;99421.88;4992983;28;20037;-55
2023/05/26 03:03:57;;;;;;;9.73;4.75;;;;;;;11.77;100.00;99424.97;4991664;28;20029;-56
2023/05/26 03:06:23;;;;;;;9.93;4.38;;;;;;;11.69;100.00;99423.25;4994246;28;20038;-56
2023/05/26 03:08:49;;;;;;;9.48;4.13;;;;;;;11.65;100.00;99416.53;4995332;28;20033;-55
2023/05/26 03:11:14;;;;;;;9.65;4.82;;;;;;;11.62;100.00;99425.06;4999075;28;20029;-56
2023/05/26 03:13:40;;;;;;;11.85;4.50;;;;;;;11.57;100.00;99425.63;4997957;28;20547;-56
2023/05/26 03:16:06;;;;;;;14.32;4.82;;;;;;;11.49;100.00;99422.22;4992183;28;20049;-56
2023/05/26 03:18:32;;;;;;;11.38;5.10;;;;;;;11.38;100.00;99416.28;4993507;28;20108;-55
2023/05/26 03:20:58;;;;;;;14.90;5.18;;;;;;;11.27;100.00;99421.41;4998402;28;20125;-56
2023/05/26 03:23:24;;;;;;;8.90;4.30;;;;;;;11.17;100.00;99419.81;4999146;28;20037;-56
2023/05/26 03:25:49;;;;;;;8.70;4.53;;;;;;;11.09;100.00;99424.53;4994709;28;20037;-56
2023/05/26 03:28:15;;;;;;;8.55;4.85;;;;;;;11.08;100.00;99423.69;5004255;28;20381;-55
2023/05/26 03:30:40;;;;;;;10.68;5.18;;;;;;;11.06;100.00;99423.03;5002847;28;20025;-56
2023/05/26 03:33:06;;;;;;;12.00;5.53;;;;;;;11.09;100.00;99438.06;4998469;28;20046;-56
2023/05/26 03:35:31;;;;;;;10.15;4.68;;;;;;;11.06;100.00;99439.28;4994088;28;20615;-56
2023/05/26 03:37:57;;;;;;;11.35;4.97;;;;;;;11.08;100.00;99426.41;4996966;28;20025;-56
2023/05/26 03:40:22;;;;;;;12.32;5.70;;;;;;;11.12;100.00;99432.25;4990049;28;20036;-55
2023/05/26 03:42:47;;;;;;;12.02;5.10;;;;;;;11.10;100.00;99424.31;5012607;28;20034;-56
2023/05/26 03:45:13;;;;;;;9.70;5.20;;;;;;;11.06;100.00;99425.75;4996585;28;20051;-55
2023/05/26 03:47:38;;;;;;;12.15;5.13;;;;;;;11.15;100.00;99431.88;4997464;28;20026;-55
2023/05/26 03:50:05;;;;;;;11.25;5.47;;;;;;;11.07;100.00;99435.53;4993623;28;20112;-55
2023/05/26 03:52:31;;;;;;;11.15;5.00;;;;;;;11.11;100.00;99442.28;5014727;28;20026;-56
2023/05/26 03:54:56;;;;;;;12.68;5.13;;;;;;;11.14;100.00;99441.88;5009816;28;20488;-55
2023/05/26 03:57:22;;;;;;;10.60;5.07;;;;;;;11.11;100.00;99436.84;5014386;28;20034;-56
2023/05/26 03:59:47;;;;;;;13.70;5.40;;;;;;;11.12;100.00;99438.50;4989986;28;20060;-47
2023/05/26 04:02:13;;;;;;;13.95;5.32;;;;;;;11.08;100.00;99434.53;4987809;28;20498;-48
2023/05/26 04:04:38;;;;;;;11.30;5.30;;;;;;;11.09;100.00;99438.06;4996664;28;20462;-55
2023/05/26 04:07:04;;;;;;;12.43;5.05;;;;;;;11.10;100.00;99440.56;5006761;28;20113;-47
2023/05/26 04:09:31;;;;;;;12.65;5.65;;;;;;;11.17;100.00;99437.94;4992425;28;20116;-55
2023/05/26 04:11:56;;;;;;;11.50;5.18;;;;;;;11.24;100.00;99435.28;4997253;28;20026;-47
2023/05/26 04:14:23;;;;;;;16.17;6.30;;;;;;;11.31;100.00;99430.78;4997403;28;20041;-47
2023/05/26 04:16:48;;;;;;;10.55;5.32;;;;;;;11.45;100.00;99427.19;4990566;28;20036;-48
2023/05/26 04:19:14;;;;;;;7.30;4.65;;;;;;;11.51;100.00;99423.72;5015169;28;20037;-56
2023/05/26 04:21:39;;;;;;;12.95;5.28;;;;;;;11.56;100.00;99434.81;4991033;28;20028;-56
2023/05/26 04:24:05;;;;;;;15.52;5.82;;;;;;;11.62;100.00;99423.19;5014935;28;20058;-56
2023/05/26 04:26:33;;;;;;;14.80;5.93;;;;;;;11.66;100.00;99434.47;4994562;28;20034;-56
2023/05/26 04:29:01;;;;;;;9.70;5.50;;;;;;;11.73;100.00;99429.94;4989383;28;20047;-48
2023/05/26 04:31:30;;;;;;;12.25;5.60;;;;;;;11.85;100.00;99439.22;4994466;28;20030;-56
2023/05/26 04:33:58;;;;;;;14.32;5.47;;;;;;;11.99;100.00;99439.38;4995413;28;20095;-55
2023/05/26 04:36:25;;;;;;;21.63;6.05;;;;;;;12.09;100.00;99439.03;4992451;28;20488;-48
2023/05/26 04:38:51;;;;;;;9.48;5.03;;;;;;;12.20;100.00;99439.31;4996606;28;20119;-48
2023/05/26 04:41:18;;;;;;;11.02;4.90;;;;;;;12.22;100.00;99436.41;5005965;28;20492;-48
2023/05/26 04:43:45;;;;;;;9.52;5.00;;;;;;;12.34;100.00;99439.38;5003232;28;20034;-48
2023/05/26 04:46:11;;;;;;;16.60;5.25;;;;;;;12.43;100.00;99441.75;4998587;28;20072;-48
2023/05/26 04:48:37;;;;;;;8.95;4.68;;;;;;;12.51;100.00;99448.91;5000813;28;20330;-48
2023/05/26 04:51:03;;;;;;;15.10;4.85;;;;;;;12.61;100.00;99443.94;4995081;28;20386;-48
2023/05/26 04:53:28;;;;;;;11.07;5.03;;;;;;;12.72;100.00;99434.38;4992723;28;20017;-56
2023/05/26 04:55:56;;;;;;;10.50;5.05;;;;;;;12.83;100.00;99452.81;4990448;28;20029;-48
2023/05/26 04:58:22;;;;;;;12.48;5.18;;;;;;;12.98;100.00;99449.13;4996495;28;20084;-56
2023/05/26 05:00:48;;;;;;;9.32;5.03;;;;;;;13.10;100.00;99447.50;4994542;28;20029;-56
2023/05/26 05:03:13;;;;;;;7.97;4.75;;;;;;;13.24;100.00;99443.78;4993200;28;20113;-56
2023/05/26 05:05:39;;;;;;;14.02;4.97;;;;;;;13.34;100.00;99449.69;4992099;28;20152;-57
2023/05/26 05:08:04;;;;;;;13.57;5.68;;;;;;;13.43;100.00;99444.88;5004075;28;20022;-55
2023/05/26 05:10:30;;;;;;;12.60;5.22;;;;;;;13.54;100.00;99448.88;4991055;28;20037;-55
2023/05/26 05:12:55;;;;;;;13.68;5.38;;;;;;;13.56;100.00;99450.34;5001033;28;20070;-56
2023/05/26 05:15:22;;;;;;;12.00;4.82;;;;;;;13.70;100.00;99447.63;4999253;28;20049;-55
2023/05/26 05:17:47;;;;;;;13.35;5.35;;;;;;;13.72;100.00;99451.00;4977033;28;20037;-56
2023/05/26 05:20:13;;;;;;;10.80;5.13;;;;;;;13.80;100.00;99448.91;4995152;28;20120;-48
2023/05/26 05:22:38;;;;;;;15.23;5.50;;;;;;;14.05;100.00;99448.28;4996063;28;20109;-48
2023/05/26 05:25:04;;;;;;;13.98;5.45;;;;;;;14.17;100.00;99449.34;4996331;28;20029;-48
2023/05/26 05:27:29;;;;;;;12.60;4.90;;;;;;;14.31;100.00;99450.16;4990559;28;20064;-48
2023/05/26 05:29:55;;;;;;;10.57;5.05;;;;;;;14.54;100.00;99457.03;4993762;28;20036;-56
2023/05/26 05:32:20;;;;;;;13.75;5.50;;;;;;;14.77;100.00;99462.00;4988770;28;20363;-57
2023/05/26 05:34:46;;;;;;;8.95;4.88;;;;;;;14.96;100.00;99466.56;4993727;28;20558;-56
2023/05/26 05:37:12;;;;;;;10.85;4.93;;;;;;;15.13;100.00;99470.44;4993827;28;20033;-56
2023/05/26 05:39:37;;;;;;;17.77;5.57;;;;;;;15.10;100.00;99470.06;4993514;28;20025;-48
2023/05/26 05:42:03;;;;;;;8.02;4.80;;;;;;;15.35;100.00;99472.84;4995969;28;20049;-56
2023/05/26 05:44:29;;;;;;;11.18;5.07;;;;;;;15.55;100.00;99470.03;4995516;28;20060;-57
2023/05/26 05:46:55;;;;;;;10.68;4.90;;;;;;;15.74;100.00;99482.72;4993539;28;20025;-58
2023/05/26 05:49:20;;;;;;;9.23;4.72;;;;;;;15.97;100.00;99473.94;4997633;28;20359;-57
2023/05/26 05:51:46;;;;;;;9.55;5.03;;;;;;;16.09;100.00;99479.53;4992267;28;20512;-49
2023/05/26 05:54:11;;;;;;;11.88;5.03;;;;;;;16.18;100.00;99478.19;4991443;28;20026;-49
2023/05/26 05:56:36;;;;;;;9.45;4.93;;;;;;;16.37;100.00;99470.03;4991389;28;20029;-49
2023/05/26 05:59:02;;;;;;;9.90;4.75;;;;;;;16.64;100.00;99482.38;4991477;28;20030;-50
2023/05/26 06:01:27;;;;;;;8.88;4.82;;;;;;;16.83;100.00;99477.78;4992755;28;20072;-49
2023/05/26 06:03:53;;;;;;;10.18;4.80;;;;;;;16.95;100.00;99482.47;4991900;28;20048;-56
2023/05/26 06:06:18;;;;;;;9.18;4.78;;;;;;;17.20;100.00;99485.97;4993407;28;20026;-57
2023/05/26 06:08:43;;;;;;;8.60;4.57;;;;;;;17.36;100.00;99478.19;4990827;28;20026;-57
2023/05/26 06:11:10;;;;;;;12.65;4.57;;;;;;;17.44;100.00;99486.91;4993803;28;20107;-57
2023/05/26 06:13:36;;;;;;;13.25;5.03;;;;;;;17.13;100.00;99485.22;4996503;28;20469;-56
2023/05/26 06:16:02;;;;;;;14.55;4.90;;;;;;;17.75;100.00;99480.34;4992291;28;20041;-57
2023/05/26 06:18:27;;;;;;;18.38;5.32;;;;;;;18.06;100.00;99486.66;4993699;28;20029;-57
2023/05/26 06:20:53;;;;;;;15.15;4.70;;;;;;;18.27;100.00;99478.94;4990320;28;20501;-49
2023/05/26 06:23:18;;;;;;;11.20;4.60;;;;;;;18.48;100.00;99478.34;4989039;28;20057;-49
2023/05/26 06:25:44;;;;;;;8.80;4.70;;;;;;;18.52;100.00;99482.31;5008460;28;20035;-49
2023/05/26 06:28:09;;;;;;;9.63;4.50;;;;;;;18.84;100.00;99462.75;4991242;28;20034;-48
2023/05/26 06:30:34;;;;;;;8.93;5.05;;;;;;;19.21;100.00;99479.69;4992012;28;20450;-56
2023/05/26 06:33:00;;;;;;;10.45;4.35;;;;;;;19.53;100.00;99481.13;4997808;28;20442;-49
2023/05/26 06:35:25;;;;;;;10.15;4.82;;;;;;;19.87;100.00;99477.41;4993617;28;20049;-50
2023/05/26 06:37:50;;;;;;;7.55;4.35;;;;;;;21.19;100.00;99475.00;4990199;28;20076;-49
2023/05/26 06:40:16;;;;;;;11.48;4.22;;;;;;;23.57;86.62;99464.41;4993531;28;20037;-49
2023/05/26 06:42:41;;;;;;;11.30;4.40;;;;;;;25.50;69.70;99464.44;4994944;28;20018;-49
2023/05/26 06:45:07;;;;;;;12.25;3.97;;;;;;;27.54;61.13;99460.88;4995035;28;20454;-49
2023/05/26 06:47:32;;;;;;;9.68;3.85;;;;;;;29.23;54.34;99460.75;4991246;28;20148;-47
2023/05/26 06:49:59;;;;;;;11.95;3.55;;;;;;;30.06;50.75;99468.94;5009671;28;20506;-48
2023/05/26 06:52:24;;;;;;;7.63;3.72;;;;;;;30.73;49.14;99468.91;4995478;28;20088;-48
2023/05/26 06:54:50;;;;;;;7.28;3.28;;;;;;;31.65;47.06;99468.25;4988231;28;20046;-49
2023/05/26 06:57:17;;;;;;;10.02;4.30;;;;;;;31.23;45.50;99463.03;4991835;28;20026;-48
2023/05/26 06:59:42;;;;;;;9.77;4.00;;;;;;;32.38;44.43;99464.78;4993763;28;20022;-49
2023/05/26 07:02:08;;;;;;;7.80;4.05;;;;;;;32.22;42.47;99470.06;4990904;28;20033;-49
2023/05/26 07:04:33;;;;;;;7.97;3.88;;;;;;;32.72;41.49;99453.50;4992558;28;20032;-49
2023/05/26 07:06:58;;;;;;;10.23;3.63;;;;;;;33.74;40.60;99453.63;5010721;28;20121;-49
2023/05/26 07:09:24;;;;;;;9.77;3.90;;;;;;;33.61;40.20;99449.94;4996816;28;20120;-49
2023/05/26 07:11:50;;;;;;;8.82;3.65;;;;;;;34.22;39.19;99449.44;4990854;28;20161;-56
2023/05/26 07:14:15;;;;;;;8.02;3.25;;;;;;;35.12;37.88;99457.00;4976282;28;20030;-63
2023/05/26 07:16:40;;;;;;;6.55;3.42;;;;;;;35.95;37.44;99451.16;4987324;28;20022;-63
2023/05/26 07:19:06;;;;;;;8.60;3.30;;;;;;;35.39;37.37;99457.47;4988873;28;20404;-64
2023/05/26 07:21:32;;;;;;;9.90;3.63;;;;;;;36.64;36.26;99464.00;4991460;28;20021;-64
2023/05/26 07:23:58;;;;;;;10.18;3.50;;;;;;;36.11;35.50;99456.88;4990641;28;20026;-63
2023/05/26 07:26:23;;;;;;;10.43;3.63;;;;;;;36.10;36.19;99458.84;4997832;28;20076;-62
2023/05/26 07:28:50;;;;;;;9.45;3.70;;;;;;;35.95;35.56;99460.41;4994491;28;20397;-61
2023/05/26 07:31:16;;;;;;;8.80;3.58;;;;;;;36.10;35.85;99463.66;5006265;28;20026;-62
2023/05/26 07:33:41;;;;;;;6.20;3.38;;;;;;;36.00;35.03;99467.81;4991164;28;20076;-62
2023/05/26 07:36:07;;;;;;;8.82;3.58;;;;;;;36.15;35.12;99467.03;4992777;28;20022;-62
2023/05/26 07:38:32;;;;;;;5.63;3.33;;;;;;;36.74;33.96;99457.00;4993510;28;20038;-62
2023/05/26 07:40:58;;;;;;;8.55;3.40;;;;;;;36.69;34.58;99460.09;4994285;28;20076;-62
2023/05/26 07:43:23;;;;;;;5.72;3.13;;;;;;;35.98;35.51;99456.06;4992220;28;20042;-62
2023/05/26 07:45:49;;;;;;;8.23;3.53;;;;;;;35.90;35.51;99463.50;5009687;28;20045;-62
2023/05/26 07:48:15;;;;;;;7.60;3.35;;;;;;;36.78;35.12;99463.53;4992227;28;20117;-62
2023/05/26 07:50:41;;;;;;;7.60;3.38;;;;;;;37.63;33.82;99452.75;4993198;28;20037;-62
2023/05/26 07:53:07;;;;;;;9.38;3.53;;;;;;;37.56;33.44;99460.25;4994335;28;20025;-62
2023/05/26 07:55:33;;;;;;;5.28;2.97;;;;;;;37.57;34.04;99464.69;4997454;28;20030;-62
2023/05/26 07:57:58;;;;;;;7.53;3.17;;;;;;;38.18;32.94;99457.56;4996260;28;20087;-54
2023/05/26 08:00:24;;;;;;;6.55;3.33;;;;;;;37.97;32.68;99450.28;4997186;28;20034;-53
2023/05/26 08:02:49;;;;;;;5.88;3.10;;;;;;;38.06;32.84;99453.69;4990780;28;20036;-53
2023/05/26 08:05:15;;;;;;;7.38;3.35;;;;;;;37.33;33.24;99457.25;4993338;28;20116;-53
2023/05/26 08:07:40;;;;;;;5.72;2.88;;;;;;;38.32;32.80;99458.63;4996529;28;20038;-53
2023/05/26 08:10:07;;;;;;;13.35;3.75;;;;;;;37.41;33.38;99453.41;4993818;28;20057;-53
2023/05/26 08:12:33;;;;;;;6.82;3.08;;;;;;;37.53;32.86;99464.63;4992812;28;20046;-53
2023/05/26 08:14:58;;;;;;;5.55;3.10;;;;;;;38.61;32.37;99449.91;4998503;28;20084;-53
2023/05/26 08:17:24;;;;;;;6.93;3.08;;;;;;;38.30;32.40;99446.06;4993333;28;20033;-52
2023/05/26 08:19:49;;;;;;;9.10;3.45;;;;;;;38.76;31.77;99448.97;4992253;28;20032;-53
2023/05/26 08:22:15;;;;;;;8.10;3.42;;;;;;;38.50;32.25;99447.72;5004237;28;20044;-52
2023/05/26 08:24:40;;;;;;;8.00;3.50;;;;;;;37.12;33.89;99451.91;4997405;28;20120;-53
2023/05/26 08:27:06;;;;;;;8.32;3.50;;;;;;;38.57;32.94;99453.50;4996633;28;20018;-52
2023/05/26 08:29:31;;;;;;;7.72;3.33;;;;;;;37.51;33.65;99455.69;4998299;28;20081;-52
2023/05/26 08:31:57;;;;;;;7.65;3.30;;;;;;;37.57;34.03;99451.38;4991593;28;20026;-50
2023/05/26 08:34:22;;;;;;;7.32;3.45;;;;;;;38.18;33.04;99449.09;4993489;28;21378;-49
2023/05/26 08:36:48;;;;;;;7.32;3.30;;;;;;;39.49;32.05;99454.66;4990406;28;20037;-50
2023/05/26 08:39:13;;;;;;;5.13;2.92;;;;;;;38.68;32.21;99445.19;4996909;28;20029;-50
2023/05/26 08:41:53;;;;;;;7.57;3.22;;;;;;;39.24;32.33;99440.88;4989582;28;20117;-50
2023/05/26 08:44:18;;;;;;;6.85;3.35;;;;;;;39.05;31.75;99443.81;4993016;28;20454;-50
2023/05/26 08:46:45;;;;;;;7.75;3.40;;;;;;;38.96;32.16;99444.06;4986146;28;20088;-50
2023/05/26 08:49:17;;;;;;;7.80;2.83;;;;;;;39.85;31.18;99448.28;4996782;28;20032;-50
2023/05/26 08:51:44;;;;;;;4.93;2.90;;;;;;;39.83;31.07;99445.03;4988539;28;20033;-50
2023/05/26 08:54:10;;;;;;;;;;;;;;;39.43;31.37;99446.47;4988481;28;20504;-50
2023/05/26 08:56:36;;;;;;;6.93;3.28;;;;;;;39.61;31.41;99448.72;4995086;28;19914;-50
2023/05/26 08:59:02;;;;;;;6.43;3.25;;;;;;;39.75;31.26;99443.28;4996068;28;20598;-50
2023/05/26 09:01:27;;;;;;;10.88;3.72;;;;;;;39.98;31.37;99433.84;4989416;28;20030;-50
2023/05/26 09:03:53;;;;;;;7.05;3.10;;;;;;;40.36;30.43;99443.25;4989686;28;20034;-50
2023/05/26 09:06:18;;;;;;;5.07;2.92;;;;;;;40.51;29.59;99442.19;4993408;28;20136;-50
2023/05/26 09:08:44;;;;;;;6.68;3.10;;;;;;;41.45;28.78;99438.94;4996467;28;20034;-50
2023/05/26 09:11:23;;;;;;;8.45;3.38;;;;;;;39.95;29.31;99448.81;4994809;28;20057;-50
2023/05/26 09:13:55;;;;;;;6.80;3.50;;;;;;;38.45;30.68;99450.03;4991885;28;20389;-50
2023/05/26 09:16:25;;;;;;;8.07;3.60;;;;;;;39.31;29.61;99457.19;4995292;28;20153;-51
2023/05/26 09:19:03;;;;;;;5.25;2.67;;;;;;;39.74;29.94;99455.78;4991386;28;20037;-51
2023/05/26 09:21:30;;;;;;;18.60;3.75;;;;;;;38.91;30.61;99448.06;4994492;28;20490;-49
2023/05/26 09:23:57;;;;;;;7.70;3.53;;;;;;;38.22;31.72;99453.59;4994864;28;20165;-49
2023/05/26 09:26:50;;;;;;;6.88;3.75;;;;;;;39.03;30.98;99454.72;4996721;28;20418;-49
2023/05/26 09:29:16;;;;;;;7.00;3.70;;;;;;;40.31;29.50;99459.38;4983324;28;20041;-49
2023/05/26 09:31:46;;;;;;;11.00;3.55;;;;;;;39.21;30.67;99461.47;5105373;22;20023;-61
2023/05/26 09:34:14;;;;;;;10.40;3.60;;;;;;;40.68;29.32;99463.44;5042420;28;20129;-66
2023/05/26 09:36:41;;;;;;;7.72;3.20;;;;;;;39.97;29.70;99463.41;5026654;28;20037;-67
2023/05/26 09:39:12;;;;;;;9.48;3.67;;;;;;;40.00;29.73;99462.63;5028067;28;20036;-66
2023/05/26 09:41:43;;;;;;;7.32;3.40;;;;;;;39.74;30.45;99461.44;5031367;28;20028;-66
2023/05/26 09:44:13;;;;;;;6.40;3.50;;;;;;;40.15;29.57;99463.63;5028793;28;20026;-67
2023/05/26 09:46:40;;;;;;;10.70;3.60;;;;;;;41.51;28.90;99454.41;5047782;28;20025;-66
2023/05/26 09:49:14;;;;;;;7.57;3.20;;;;;;;40.59;29.45;99463.75;5033141;28;20491;-66
2023/05/26 09:51:41;;;;;;;8.60;3.17;;;;;;;40.38;28.25;99460.69;5035257;28;20288;-66
2023/05/26 09:54:09;;;;;;;6.38;3.17;;;;;;;40.86;29.19;99463.59;5028917;28;20040;-66
2023/05/26 09:56:37;;;;;;;6.03;3.00;;;;;;;40.46;29.28;99453.88;5024398;28;20079;-66
2023/05/26 09:59:06;;;;;;;5.82;2.70;;;;;;;41.09;28.94;99455.72;5021479;28;20072;-66
2023/05/26 10:01:37;;;;;;;4.43;2.65;;;;;;;40.38;29.07;99449.34;5035468;28;20117;-66
2023/05/26 10:04:06;;;;;;;6.25;3.17;;;;;;;39.92;29.77;99453.22;5025434;28;20029;-66
2023/05/26 10:06:35;;;;;;;7.18;3.30;;;;;;;39.84;29.14;99449.47;5033260;28;20083;-66
2023/05/26 10:09:01;;;;;;;6.10;3.45;;;;;;;38.83;30.70;99448.28;5023778;28;20021;-65
2023/05/26 10:11:29;;;;;;;9.85;3.00;;;;;;;39.44;30.28;99445.28;5032365;28;20033;-66
2023/05/26 10:13:55;;;;;;;6.10;2.90;;;;;;;40.40;29.59;99444.06;5026118;28;20041;-66
2023/05/26 10:16:22;;;;;;;6.40;3.05;;;;;;;39.84;29.98;99448.66;5030933;28;20072;-66
2023/05/26 10:18:48;;;;;;;6.93;3.03;;;;;;;40.86;29.13;99447.38;5029881;28;20026;-66
2023/05/26 10:21:17;;;;;;;5.28;2.85;;;;;;;40.24;29.31;99449.97;5032375;28;20053;-66
2023/05/26 10:24:18;;;;;;;9.80;3.10;;;;;;;40.43;29.09;99446.97;5023465;28;20033;-66
2023/05/26 10:26:48;;;;;;;9.60;3.15;;;;;;;39.68;29.49;99460.16;5021883;28;20041;-67
2023/05/26 10:29:18;;;;;;;8.45;3.40;;;;;;;39.48;30.01;99450.16;5045127;28;20025;-65
2023/05/26 10:31:44;;;;;;;8.38;3.30;;;;;;;39.87;30.20;99443.03;5028269;28;20114;-66
2023/05/26 10:34:34;;;;;;;5.28;2.92;;;;;;;40.87;29.32;99442.53;5029070;28;20047;-66
2023/05/26 10:37:01;;;;;;;6.00;2.58;;;;;;;40.90;28.57;99441.72;5045849;28;20037;-66
2023/05/26 10:39:27;;;;;;;10.50;2.60;;;;;;;41.62;28.53;99431.75;5046952;28;20031;-67
2023/05/26 10:41:53;;;;;;;5.78;2.72;;;;;;;42.30;28.82;99437.72;5023591;28;20017;-67
2023/05/26 10:44:41;;;;;;;7.00;2.85;;;;;;;40.66;29.07;99446.78;5025126;28;20045;-67
2023/05/26 10:47:13;;;;;;;7.53;2.90;;;;;;;41.71;27.96;99440.69;5046439;28;20053;-67
2023/05/26 10:49:39;;;;;;;4.70;2.83;;;;;;;41.59;27.97;99433.34;5030227;28;20048;-67
2023/05/26 10:52:14;;;;;;;6.25;3.20;;;;;;;41.33;27.60;99442.09;5051729;28;20530;-67
2023/05/26 10:54:42;;;;;;;7.18;2.83;;;;;;;40.92;28.34;99442.97;5039262;28;20036;-67
2023/05/26 10:57:30;;;;;;;5.85;3.28;;;;;;;40.70;28.58;99436.31;5023210;28;20054;-67
2023/05/26 10:59:56;;;;;;;4.20;2.70;;;;;;;40.96;28.70;99437.34;5048034;28;20029;-67
2023/05/26 11:02:21;;;;;;;7.97;2.90;;;;;;;40.47;28.30;99432.81;5031991;28;20037;-67
2023/05/26 11:04:48;;;;;;;8.13;3.00;;;;;;;40.01;29.12;99428.25;5036970;28;20067;-67
2023/05/26 11:07:22;;;;;;;8.43;3.28;;;;;;;40.59;28.47;99432.53;5032861;28;20123;-66
2023/05/26 11:10:05;;;;;;;8.38;2.63;;;;;;;41.96;27.81;99431.50;5032614;28;20063;-66
2023/05/26 11:12:48;;;;;;;5.68;2.78;;;;;;;41.55;27.48;99426.81;5047609;28;20462;-67
2023/05/26 11:15:33;;;;;;;5.20;2.72;;;;;;;39.48;28.56;99430.34;5047849;28;20036;-67
2023/05/26 11:18:05;;;;;;;6.45;3.15;;;;;;;39.87;29.56;99431.69;5028916;28;20064;-66
2023/05/26 11:20:32;;;;;;;6.80;3.25;;;;;;;39.80;28.88;99427.97;5041503;28;20032;-66
2023/05/26 11:22:58;;;;;;;6.00;2.63;;;;;;;41.01;29.04;99419.94;5055044;28;20078;-66
2023/05/26 11:25:25;;;;;;;5.72;2.47;;;;;;;41.33;28.50;99420.19;5063524;28;20029;-66
2023/05/26 11:27:51;;;;;;;7.68;3.00;;;;;;;41.27;28.04;99420.97;5030778;28;20025;-66